createdAt,value
2018-08-13T00:00:02.797Z,90.80
2018-08-13T00:02:31.582Z,90.40
2018-08-13T00:05:00.301Z,90.30
2018-08-13T00:07:29.438Z,90.10
2018-08-13T00:10:02.695Z,90.40
2018-08-13T00:12:31.875Z,90.70
2018-08-13T00:15:00.915Z,90.60
2018-08-13T00:17:29.682Z,90.80
2018-08-13T00:19:58.343Z,90.80
2018-08-13T00:22:27.106Z,91.00
2018-08-13T00:24:55.868Z,91.00
2018-08-13T00:27:24.572Z,91.10
2018-08-13T00:29:53.241Z,91.10
2018-08-13T00:32:21.964Z,90.70
2018-08-13T00:34:50.682Z,90.50
2018-08-13T00:37:19.365Z,90.70
2018-08-13T00:39:48.086Z,90.90
2018-08-13T00:42:16.793Z,90.80
2018-08-13T00:44:45.473Z,91.30
2018-08-13T00:47:14.293Z,91.60
2018-08-13T00:49:42.995Z,91.50
2018-08-13T00:52:11.738Z,91.30
2018-08-13T00:54:40.655Z,91.40
2018-08-13T00:57:09.613Z,91.40
2018-08-13T00:59:38.363Z,91.30
2018-08-13T01:02:07.110Z,91.10
2018-08-13T01:04:35.844Z,91.10
2018-08-13T01:07:04.674Z,91.50
2018-08-13T01:09:33.620Z,91.00
2018-08-13T01:12:02.444Z,91.10
2018-08-13T01:14:31.285Z,91.70
2018-08-13T01:16:59.975Z,91.70
2018-08-13T01:19:28.750Z,90.90
2018-08-13T01:21:57.408Z,90.80
2018-08-13T01:24:26.146Z,90.70
2018-08-13T01:26:54.912Z,90.40
2018-08-13T01:29:23.582Z,90.30
2018-08-13T01:31:52.312Z,90.60
2018-08-13T01:34:21.006Z,90.90
2018-08-13T01:36:49.698Z,90.90
2018-08-13T01:39:18.378Z,91.20
2018-08-13T01:41:47.099Z,90.50
2018-08-13T01:44:15.789Z,89.90
2018-08-13T01:46:44.514Z,89.20
2018-08-13T01:49:13.162Z,87.70
2018-08-13T01:51:41.848Z,87.10
2018-08-13T01:54:10.550Z,85.60
2018-08-13T01:56:39.206Z,82.10
2018-08-13T01:59:07.978Z,82.90
2018-08-13T02:01:36.705Z,86.00
2018-08-13T02:04:05.434Z,86.30
2018-08-13T02:06:34.173Z,87.40
2018-08-13T02:09:02.947Z,87.50
2018-08-13T02:11:31.735Z,86.70
2018-08-13T02:14:00.483Z,85.80
2018-08-13T02:16:29.167Z,85.10
2018-08-13T02:18:57.883Z,87.00
2018-08-13T02:21:26.713Z,85.50
2018-08-13T02:23:55.433Z,88.20
2018-08-13T02:26:24.128Z,86.40
2018-08-13T02:28:52.940Z,87.30
2018-08-13T02:31:21.996Z,84.10
2018-08-13T02:33:50.678Z,84.60
2018-08-13T02:36:19.340Z,84.30
2018-08-13T02:38:48.059Z,85.20
2018-08-13T02:41:16.749Z,87.30
2018-08-13T02:43:45.449Z,87.20
2018-08-13T02:46:14.169Z,88.00
2018-08-13T02:48:42.905Z,87.50
2018-08-13T02:51:11.648Z,87.50
2018-08-13T02:53:40.321Z,87.80
2018-08-13T02:56:09.076Z,87.00
2018-08-13T02:58:37.753Z,86.20
2018-08-13T03:01:06.639Z,85.60
2018-08-13T03:03:35.360Z,86.40
2018-08-13T03:06:04.073Z,85.00
2018-08-13T03:08:32.848Z,86.00
2018-08-13T03:11:01.527Z,85.30
2018-08-13T03:13:30.266Z,84.50
2018-08-13T03:15:59.015Z,84.80
2018-08-13T03:18:27.782Z,85.30
2018-08-13T03:20:56.503Z,85.50
2018-08-13T03:23:25.234Z,85.90
2018-08-13T03:25:54.009Z,83.90
2018-08-13T03:28:22.728Z,85.80
2018-08-13T03:30:51.390Z,85.90
2018-08-13T03:33:20.099Z,85.60
2018-08-13T03:35:48.792Z,88.30
2018-08-13T03:38:17.450Z,87.70
2018-08-13T03:40:46.141Z,86.10
2018-08-13T03:43:14.878Z,85.10
2018-08-13T03:45:43.648Z,82.90
2018-08-13T03:48:12.345Z,84.00
2018-08-13T03:50:41.042Z,85.40
2018-08-13T03:53:09.970Z,86.50
2018-08-13T03:55:38.669Z,87.10
2018-08-13T03:58:07.385Z,87.90
2018-08-13T04:00:36.090Z,86.00
2018-08-13T04:03:05.077Z,84.40
2018-08-13T04:05:33.762Z,85.40
2018-08-13T04:08:02.542Z,82.50
2018-08-13T04:10:31.317Z,81.70
2018-08-13T04:13:00.141Z,81.50
2018-08-13T04:15:28.760Z,83.00
2018-08-13T04:17:57.444Z,80.70
2018-08-13T04:20:26.133Z,80.20
2018-08-13T04:22:54.909Z,82.80
2018-08-13T04:25:23.607Z,80.80
2018-08-13T04:27:52.282Z,81.60
2018-08-13T04:30:20.998Z,82.50
2018-08-13T04:32:49.757Z,84.00
2018-08-13T04:35:18.541Z,83.50
2018-08-13T04:37:47.587Z,84.20
2018-08-13T04:40:17.661Z,82.30
2018-08-13T04:42:47.305Z,83.20
2018-08-13T04:45:16.198Z,80.70
2018-08-13T04:47:49.055Z,80.10
2018-08-13T04:50:17.870Z,81.10
2018-08-13T04:52:46.631Z,82.90
2018-08-13T04:55:15.356Z,83.30
2018-08-13T04:57:44.209Z,82.90
2018-08-13T05:00:12.924Z,82.10
2018-08-13T05:02:41.637Z,81.80
2018-08-13T05:05:11.575Z,85.20
2018-08-13T05:07:40.490Z,84.50
2018-08-13T05:10:10.578Z,84.70
2018-08-13T05:12:40.016Z,85.90
2018-08-13T05:15:09.999Z,85.00
2018-08-13T05:17:38.758Z,85.00
2018-08-13T05:20:08.691Z,83.70
2018-08-13T05:22:37.458Z,84.50
2018-08-13T05:25:07.433Z,80.50
2018-08-13T05:27:36.439Z,76.40
2018-08-13T05:30:06.594Z,73.00
2018-08-13T05:32:35.213Z,71.80
2018-08-13T05:35:04.724Z,71.60
2018-08-13T05:37:33.445Z,73.20
2018-08-13T05:40:02.206Z,73.90
2018-08-13T05:42:31.037Z,74.10
2018-08-13T05:44:59.770Z,75.80
2018-08-13T05:47:28.531Z,77.00
2018-08-13T05:49:57.266Z,78.30
2018-08-13T05:52:26.022Z,79.50
2018-08-13T05:54:54.750Z,81.90
2018-08-13T05:57:23.484Z,82.50
2018-08-13T05:59:52.264Z,83.70
2018-08-13T06:02:20.990Z,84.30
2018-08-13T06:04:49.717Z,84.90
2018-08-13T06:07:18.385Z,85.20
2018-08-13T06:09:47.078Z,85.40
2018-08-13T06:12:15.845Z,85.50
2018-08-13T06:14:44.561Z,85.50
2018-08-13T06:17:13.246Z,84.70
2018-08-13T06:19:41.913Z,85.70
2018-08-13T06:22:10.646Z,85.30
2018-08-13T06:24:39.342Z,85.80
2018-08-13T06:27:08.032Z,85.30
2018-08-13T06:29:36.808Z,85.50
2018-08-13T06:32:59.898Z,85.00
2018-08-13T06:35:28.605Z,85.50
2018-08-13T06:37:57.486Z,84.30
2018-08-13T06:40:26.172Z,84.40
2018-08-13T06:42:54.918Z,84.20
2018-08-13T06:45:23.729Z,84.10
2018-08-13T06:47:52.445Z,83.40
2018-08-13T06:50:21.148Z,83.20
2018-08-13T06:52:49.944Z,83.60
2018-08-13T06:55:18.666Z,83.70
2018-08-13T06:57:47.409Z,85.10
2018-08-13T07:00:16.114Z,86.10
2018-08-13T07:02:44.860Z,86.20
2018-08-13T07:05:13.666Z,87.00
2018-08-13T07:07:42.519Z,88.60
2018-08-13T07:10:12.379Z,89.50
2018-08-13T07:12:42.824Z,90.10
2018-08-13T07:15:12.057Z,89.80
2018-08-13T07:17:40.795Z,90.50
2018-08-13T07:20:15.383Z,90.60
2018-08-13T07:22:44.565Z,90.20
2018-08-13T07:25:13.324Z,89.70
2018-08-13T07:27:42.515Z,87.80
2018-08-13T07:30:13.543Z,89.10
2018-08-13T07:32:42.857Z,88.30
2018-08-13T07:35:11.613Z,87.60
2018-08-13T07:37:40.372Z,85.50
2018-08-13T07:40:13.105Z,84.40
2018-08-13T07:42:41.897Z,84.80
2018-08-13T07:45:10.786Z,84.70
2018-08-13T07:47:39.565Z,85.70
2018-08-13T07:50:10.101Z,85.70
2018-08-13T07:52:38.827Z,86.10
2018-08-13T07:55:07.869Z,85.00
2018-08-13T07:57:36.625Z,84.10
2018-08-13T08:00:06.907Z,83.40
2018-08-13T08:02:35.609Z,83.80
2018-08-13T08:05:05.214Z,82.40
2018-08-13T08:07:33.978Z,83.50
2018-08-13T08:10:02.726Z,83.00
2018-08-13T08:12:31.450Z,82.20
2018-08-13T08:15:00.160Z,82.00
2018-08-13T08:17:28.876Z,82.70
2018-08-13T08:19:57.546Z,82.80
2018-08-13T08:22:26.276Z,83.30
2018-08-13T08:24:55.022Z,84.00
2018-08-13T08:27:23.772Z,84.10
2018-08-13T08:29:52.530Z,83.60
2018-08-13T08:32:21.271Z,83.00
2018-08-13T08:34:50.055Z,82.70
2018-08-13T08:37:18.781Z,82.40
2018-08-13T08:39:47.513Z,81.30
2018-08-13T08:42:16.212Z,80.90
2018-08-13T08:44:44.955Z,80.20
2018-08-13T08:47:13.655Z,79.40
2018-08-13T08:49:42.390Z,79.30
2018-08-13T08:52:11.135Z,78.60
2018-08-13T08:54:39.865Z,78.40
2018-08-13T08:57:08.656Z,79.30
2018-08-13T08:59:37.354Z,78.60
2018-08-13T09:02:06.109Z,79.30
2018-08-13T09:04:34.830Z,78.10
2018-08-13T09:07:03.528Z,78.50
2018-08-13T09:09:32.232Z,77.30
2018-08-13T09:12:00.994Z,76.00
2018-08-13T09:14:29.672Z,77.20
2018-08-13T09:16:58.448Z,77.40
2018-08-13T09:19:38.429Z,78.30
2018-08-13T09:22:18.278Z,78.90
2018-08-13T09:24:58.131Z,79.20
2018-08-13T09:27:38.004Z,79.60
2018-08-13T09:30:17.872Z,80.10
2018-08-13T09:32:57.749Z,79.00
2018-08-13T09:35:29.667Z,78.70
2018-08-13T09:37:58.642Z,78.30
2018-08-13T09:40:28.592Z,78.30
2018-08-13T09:42:57.368Z,77.40
2018-08-13T09:45:26.369Z,76.70
2018-08-13T09:47:55.246Z,75.60
2018-08-13T09:50:24.068Z,73.60
2018-08-13T09:52:52.841Z,72.50
2018-08-13T09:55:21.647Z,70.90
2018-08-13T09:57:50.969Z,68.90
2018-08-13T10:00:26.087Z,66.70
2018-08-13T10:02:54.828Z,63.50
2018-08-13T10:05:23.579Z,64.50
2018-08-13T10:07:52.288Z,65.30
2018-08-13T10:10:20.997Z,66.70
2018-08-13T10:12:49.777Z,67.10
2018-08-13T10:15:18.543Z,67.20
2018-08-13T10:17:47.280Z,68.00
2018-08-13T10:20:19.057Z,69.30
2018-08-13T10:22:48.064Z,69.10
2018-08-13T10:25:16.860Z,69.90
2018-08-13T10:27:45.710Z,70.70
2018-08-13T10:30:16.169Z,70.50
2018-08-13T10:32:45.050Z,71.20
2018-08-13T10:35:13.765Z,72.20
2018-08-13T10:37:42.922Z,72.70
2018-08-13T10:40:16.949Z,73.60
2018-08-13T10:42:46.251Z,75.10
2018-08-13T10:45:15.321Z,77.40
2018-08-13T10:47:44.084Z,80.00
2018-08-13T10:50:13.904Z,83.10
2018-08-13T10:52:42.937Z,85.40
2018-08-13T10:55:13.413Z,86.80
2018-08-13T10:57:42.561Z,87.00
2018-08-13T11:00:13.876Z,85.00
2018-08-13T11:02:42.683Z,81.10
2018-08-13T11:05:12.642Z,84.50
2018-08-13T11:07:41.396Z,81.90
2018-08-13T11:10:12.321Z,79.10
2018-08-13T11:12:41.084Z,79.40
2018-08-13T11:15:13.232Z,78.50
2018-08-13T11:17:41.998Z,76.70
2018-08-13T11:20:10.779Z,74.40
2018-08-13T11:22:40.620Z,74.70
2018-08-13T11:25:11.074Z,75.80
2018-08-13T11:27:39.831Z,74.30
2018-08-13T11:30:10.795Z,72.10
2018-08-13T11:32:39.543Z,72.90
2018-08-13T11:35:08.427Z,71.80
2018-08-13T11:37:37.345Z,70.50
2018-08-13T11:40:09.959Z,69.70
2018-08-13T11:42:38.832Z,69.40
2018-08-13T11:45:07.871Z,67.00
2018-08-13T11:47:37.147Z,66.90
2018-08-13T11:50:13.257Z,68.00
2018-08-13T11:52:42.573Z,68.80
2018-08-13T11:55:11.357Z,68.70
2018-08-13T11:57:40.104Z,69.40
2018-08-13T12:00:10.632Z,70.20
2018-08-13T12:02:39.469Z,70.30
2018-08-13T12:05:10.694Z,69.00
2018-08-13T12:07:39.494Z,68.40
2018-08-13T12:10:09.860Z,68.90
2018-08-13T12:12:39.447Z,68.40
2018-08-13T12:15:08.964Z,67.80
2018-08-13T12:17:37.766Z,67.10
2018-08-13T12:20:09.015Z,67.20
2018-08-13T12:22:37.856Z,67.70
2018-08-13T12:25:07.278Z,66.70
2018-08-13T12:27:36.369Z,66.50
2018-08-13T12:30:07.897Z,65.20
2018-08-13T12:32:36.614Z,65.10
2018-08-13T12:35:06.122Z,65.40
2018-08-13T12:37:34.823Z,65.70
2018-08-13T12:40:04.717Z,65.80
2018-08-13T12:42:33.497Z,65.80
2018-08-13T12:45:02.177Z,66.70
2018-08-13T12:47:31.013Z,67.40
2018-08-13T12:49:59.740Z,67.60
2018-08-13T12:52:28.493Z,68.60
2018-08-13T12:54:57.221Z,70.20
2018-08-13T12:57:25.881Z,71.00
2018-08-13T12:59:54.682Z,71.50
2018-08-13T13:02:23.434Z,72.00
2018-08-13T13:04:52.160Z,73.00
2018-08-13T13:07:20.858Z,73.60
2018-08-13T13:09:49.525Z,73.90
2018-08-13T13:12:18.263Z,75.00
2018-08-13T13:14:47.394Z,75.10
2018-08-13T13:17:16.130Z,75.60
2018-08-13T13:19:44.818Z,76.20
2018-08-13T13:22:13.510Z,77.00
2018-08-13T13:24:42.587Z,77.80
2018-08-13T13:27:11.600Z,79.80
2018-08-13T13:29:41.170Z,80.30
2018-08-13T13:32:10.119Z,82.70
2018-08-13T13:34:39.385Z,83.90
2018-08-13T13:37:09.676Z,84.10
2018-08-13T13:39:40.191Z,83.40
2018-08-13T13:42:09.764Z,82.90
2018-08-13T13:44:38.686Z,82.40
2018-08-13T13:47:08.198Z,81.70
2018-08-13T13:49:38.088Z,77.60
2018-08-13T13:52:06.998Z,77.60
2018-08-13T13:54:35.687Z,75.50
2018-08-13T13:57:04.437Z,75.20
2018-08-13T13:59:33.227Z,75.60
2018-08-13T14:02:03.342Z,75.30
2018-08-13T14:04:32.083Z,76.00
2018-08-13T14:07:00.825Z,76.80
2018-08-13T14:09:29.567Z,75.10
2018-08-13T14:11:58.298Z,74.80
2018-08-13T14:14:27.314Z,73.80
2018-08-13T14:16:56.015Z,73.10
2018-08-13T14:19:24.810Z,72.00
2018-08-13T14:21:53.529Z,71.10
2018-08-13T14:24:22.313Z,69.90
2018-08-13T14:26:50.996Z,69.30
2018-08-13T14:29:19.769Z,69.70
2018-08-13T14:31:48.463Z,69.30
2018-08-13T14:34:17.219Z,69.00
2018-08-13T14:36:45.921Z,68.50
2018-08-13T14:39:14.677Z,70.10
2018-08-13T14:41:44.614Z,71.50
2018-08-13T14:44:13.345Z,72.50
2018-08-13T14:46:42.041Z,73.20
2018-08-13T14:49:10.727Z,74.20
2018-08-13T14:51:39.435Z,74.90
2018-08-13T14:54:08.224Z,75.60
2018-08-13T14:56:36.952Z,76.90
2018-08-13T14:59:06.443Z,81.60
2018-08-13T15:01:35.213Z,84.80
2018-08-13T15:04:03.963Z,88.30
2018-08-13T15:06:32.711Z,89.10
2018-08-13T15:09:01.422Z,89.40
2018-08-13T15:11:36.342Z,90.50
2018-08-13T15:14:05.570Z,91.10
2018-08-13T15:16:34.278Z,91.60
2018-08-13T15:19:02.971Z,91.20
2018-08-13T15:21:31.820Z,91.30
2018-08-13T15:24:00.562Z,91.60
2018-08-13T15:26:29.258Z,91.40
2018-08-13T15:28:57.965Z,91.30
2018-08-13T15:31:26.654Z,90.40
2018-08-13T15:33:55.374Z,89.20
2018-08-13T15:36:24.096Z,88.70
2018-08-13T15:38:52.809Z,88.90
2018-08-13T15:41:21.614Z,88.90
2018-08-13T15:43:50.334Z,88.90
2018-08-13T15:46:19.025Z,87.50
2018-08-13T15:48:47.779Z,89.40
2018-08-13T15:51:16.515Z,88.90
2018-08-13T15:53:45.197Z,89.30
2018-08-13T15:56:13.899Z,87.80
2018-08-13T15:58:42.595Z,86.40
2018-08-13T16:01:11.309Z,86.30
2018-08-13T16:03:40.075Z,86.20
2018-08-13T16:06:08.765Z,84.40
2018-08-13T16:08:37.466Z,84.60
2018-08-13T16:11:06.170Z,84.50
2018-08-13T16:13:34.932Z,86.20
2018-08-13T16:16:03.704Z,87.20
2018-08-13T16:18:32.444Z,87.10
2018-08-13T16:21:01.207Z,87.40
2018-08-13T16:23:29.893Z,88.70
2018-08-13T16:25:58.563Z,89.60
2018-08-13T16:28:27.277Z,89.10
2018-08-13T16:30:55.991Z,89.60
2018-08-13T16:33:24.685Z,89.30
2018-08-13T16:35:53.478Z,89.40
2018-08-13T16:38:22.159Z,90.20
2018-08-13T16:40:50.865Z,90.00
2018-08-13T16:43:19.605Z,90.00
2018-08-13T16:45:48.272Z,90.00
2018-08-13T16:48:17.008Z,90.50
2018-08-13T16:50:45.834Z,90.50
2018-08-13T16:53:14.511Z,91.10
2018-08-13T16:55:43.222Z,90.90
2018-08-13T16:58:12.150Z,91.50
2018-08-13T17:00:40.832Z,91.80
2018-08-13T17:03:09.570Z,91.70
2018-08-13T17:05:38.281Z,91.60
2018-08-13T17:08:07.048Z,92.20
2018-08-13T17:10:35.779Z,92.60
2018-08-13T17:13:04.525Z,92.60
2018-08-13T17:15:33.530Z,92.40
2018-08-13T17:18:03.144Z,92.80
2018-08-13T17:20:33.311Z,92.40
2018-08-13T17:23:02.134Z,92.90
2018-08-13T17:25:30.965Z,93.00
2018-08-13T17:27:59.773Z,93.50
2018-08-13T17:30:28.588Z,93.70
2018-08-13T17:32:58.867Z,93.30
2018-08-13T17:35:29.619Z,93.00
2018-08-13T17:37:59.045Z,93.10
2018-08-13T17:40:28.286Z,93.20
2018-08-13T17:42:57.280Z,93.40
2018-08-13T17:45:25.993Z,93.50
2018-08-13T17:47:54.807Z,94.00
2018-08-13T17:50:24.173Z,94.20
2018-08-13T17:52:52.972Z,94.30
2018-08-13T17:55:21.780Z,94.20
2018-08-13T17:57:50.531Z,94.30
2018-08-13T18:00:22.990Z,94.30
2018-08-13T18:02:51.707Z,94.50
2018-08-13T18:05:22.607Z,93.70
2018-08-13T18:07:51.791Z,92.60
2018-08-13T18:10:29.347Z,93.30
2018-08-13T18:12:59.290Z,92.40
2018-08-13T18:15:28.109Z,92.40
2018-08-13T18:17:56.880Z,93.00
2018-08-13T18:20:25.650Z,93.40
2018-08-13T18:22:54.326Z,93.70
2018-08-13T18:25:23.221Z,93.70
2018-08-13T18:27:52.421Z,94.00
2018-08-13T18:30:23.321Z,94.30
2018-08-13T18:32:52.406Z,94.80
2018-08-13T18:35:21.119Z,95.20
2018-08-13T18:37:49.880Z,95.40
2018-08-13T18:40:20.958Z,95.70
2018-08-13T18:42:49.926Z,95.90
2018-08-13T18:45:18.692Z,96.00
2018-08-13T18:47:48.098Z,96.20
2018-08-13T18:50:18.217Z,96.40
2018-08-13T18:52:47.115Z,96.40
2018-08-13T18:55:17.319Z,96.50
2018-08-13T18:57:46.492Z,96.40
2018-08-13T19:00:16.936Z,96.40
2018-08-13T19:02:45.749Z,96.50
2018-08-13T19:05:15.426Z,96.50
2018-08-13T19:07:44.957Z,96.60
2018-08-13T19:10:14.635Z,96.70
2018-08-13T19:12:43.344Z,97.00
2018-08-13T19:15:15.677Z,97.10
2018-08-13T19:17:44.439Z,97.30
2018-08-13T19:20:14.036Z,97.30
2018-08-13T19:22:43.225Z,97.30
2018-08-13T19:25:20.362Z,97.30
2018-08-13T19:27:49.039Z,97.20
2018-08-13T19:30:18.917Z,97.20
2018-08-13T19:32:48.474Z,97.20
2018-08-13T19:35:17.412Z,97.20
2018-08-13T19:37:46.500Z,97.50
2018-08-13T19:40:18.064Z,97.60
2018-08-13T19:42:47.781Z,97.60
2018-08-13T19:45:17.340Z,97.50
2018-08-13T19:47:46.679Z,97.40
2018-08-13T19:50:15.744Z,97.30
2018-08-13T19:52:45.724Z,97.50
2018-08-13T19:55:14.860Z,97.40
2018-08-13T19:57:43.555Z,97.30
2018-08-13T20:00:19.884Z,97.30
2018-08-13T20:02:49.168Z,97.40
2018-08-13T20:05:19.175Z,97.60
2018-08-13T20:07:47.886Z,97.80
2018-08-13T20:10:17.010Z,98.10
2018-08-13T20:12:46.361Z,98.10
2018-08-13T20:15:15.125Z,98.20
2018-08-13T20:17:44.173Z,98.20
2018-08-13T20:20:16.246Z,98.20
2018-08-13T20:22:45.694Z,98.30
2018-08-13T20:25:16.560Z,98.30
2018-08-13T20:27:45.776Z,98.60
2018-08-13T20:30:17.695Z,98.30
2018-08-13T20:32:47.907Z,98.50
2018-08-13T20:35:16.720Z,98.30
2018-08-13T20:37:45.481Z,98.30
2018-08-13T20:40:15.979Z,98.30
2018-08-13T20:42:45.377Z,98.40
2018-08-13T20:45:16.170Z,98.50
2018-08-13T20:47:45.247Z,98.70
2018-08-13T20:50:16.908Z,98.40
2018-08-13T20:52:46.306Z,98.50
2018-08-13T20:55:21.425Z,98.50
2018-08-13T20:57:50.445Z,98.50
2018-08-13T21:00:20.852Z,98.60
2018-08-13T21:02:49.644Z,98.70
2018-08-13T21:05:18.741Z,98.50
2018-08-13T21:07:48.570Z,98.40
2018-08-13T21:10:19.588Z,98.50
2018-08-13T21:12:48.688Z,98.80
2018-08-13T21:15:17.605Z,99.40
2018-08-13T21:17:46.646Z,99.40
2018-08-13T21:20:19.164Z,99.30
2018-08-13T21:22:48.045Z,99.40
2018-08-13T21:25:16.972Z,99.30
2018-08-13T21:27:45.933Z,99.10
2018-08-13T21:30:14.697Z,99.10
2018-08-13T21:32:44.218Z,99.00
2018-08-13T21:35:16.733Z,99.10
2018-08-13T21:37:45.995Z,99.20
2018-08-13T21:40:14.780Z,99.30
2018-08-13T21:42:43.798Z,99.30
2018-08-13T21:45:12.868Z,99.40
2018-08-13T21:47:41.881Z,99.40
2018-08-13T21:50:17.188Z,99.40
2018-08-13T21:52:46.932Z,99.50
2018-08-13T21:55:15.674Z,99.60
2018-08-13T21:57:44.423Z,99.70
2018-08-13T22:00:37.813Z,99.90
2018-08-13T22:03:09.268Z,99.90
2018-08-13T22:05:38.020Z,99.90
2018-08-13T22:08:06.912Z,99.90
2018-08-13T22:10:35.653Z,99.90
2018-08-13T22:13:04.427Z,99.90
2018-08-13T22:15:33.772Z,99.90
2018-08-13T22:18:06.912Z,99.90
2018-08-13T22:20:36.588Z,99.90
2018-08-13T22:23:07.375Z,99.90
2018-08-13T22:25:39.154Z,99.90
2018-08-13T22:28:09.264Z,99.90
2018-08-13T22:30:38.046Z,99.90
2018-08-13T22:33:08.075Z,99.90
2018-08-13T22:35:36.860Z,99.90
2018-08-13T22:38:06.352Z,99.90
2018-08-13T22:40:35.346Z,99.90
2018-08-13T22:43:04.060Z,99.90
2018-08-13T22:45:32.778Z,99.90
2018-08-13T22:48:01.489Z,99.90
2018-08-13T22:50:30.149Z,99.90
2018-08-13T22:52:59.560Z,99.90
2018-08-13T22:55:28.513Z,99.90
2018-08-13T22:57:57.242Z,99.90
2018-08-13T23:00:25.952Z,99.90
2018-08-13T23:02:54.693Z,99.90
2018-08-13T23:05:26.020Z,99.90
2018-08-13T23:07:54.796Z,99.90
2018-08-13T23:10:24.585Z,99.90
2018-08-13T23:12:54.885Z,99.90
2018-08-13T23:15:23.734Z,99.90
2018-08-13T23:17:53.316Z,99.90
2018-08-13T23:20:24.806Z,99.90
2018-08-13T23:22:59.890Z,99.90
2018-08-13T23:25:29.286Z,99.90
2018-08-13T23:27:59.245Z,99.90
2018-08-13T23:30:28.236Z,99.90
2018-08-13T23:32:57.866Z,99.90
2018-08-13T23:35:27.332Z,99.90
2018-08-13T23:37:56.249Z,99.90
2018-08-13T23:40:25.470Z,99.90
2018-08-13T23:42:54.252Z,99.90
2018-08-13T23:45:25.090Z,99.90
2018-08-13T23:47:53.917Z,99.90
2018-08-13T23:50:23.830Z,99.90
2018-08-13T23:52:54.006Z,99.90
2018-08-13T23:55:32.457Z,99.90
2018-08-13T23:58:01.689Z,99.90
